sensor_id;sensor_type;location;lat;lon;timestamp;P1;durP1;ratioP1;P2;durP2;ratioP2
13240;SDS011;6687;47.790;7.322;2023-10-08T05:24:26;1.83;;;1.15;;
13240;SDS011;6687;47.790;7.322;2023-10-08T05:27:03;0.65;;;0.65;;
13240;SDS011;6687;47.790;7.322;2023-10-08T05:30:01;1.00;;;1.00;;
13240;SDS011;6687;47.790;7.322;2023-10-08T05:32:42;0.60;;;0.60;;
13240;SDS011;6687;47.790;7.322;2023-10-08T05:35:31;1.05;;;0.63;;
13240;SDS011;6687;47.790;7.322;2023-10-08T05:38:15;1.27;;;0.85;;
13240;SDS011;6687;47.790;7.322;2023-10-08T05:40:49;1.23;;;1.08;;
13240;SDS011;6687;47.790;7.322;2023-10-08T05:43:52;0.75;;;0.75;;
13240;SDS011;6687;47.790;7.322;2023-10-08T05:46:39;0.77;;;0.77;;
13240;SDS011;6687;47.790;7.322;2023-10-08T05:49:12;0.82;;;0.82;;
13240;SDS011;6687;47.790;7.322;2023-10-08T05:51:51;0.60;;;0.60;;
13240;SDS011;6687;47.790;7.322;2023-10-08T05:54:32;0.82;;;0.82;;
13240;SDS011;6687;47.790;7.322;2023-10-08T05:57:13;1.15;;;1.05;;
13240;SDS011;6687;47.790;7.322;2023-10-08T05:59:50;0.52;;;0.52;;
13240;SDS011;6687;47.790;7.322;2023-10-08T06:02:39;1.23;;;0.73;;
13240;SDS011;6687;47.790;7.322;2023-10-08T06:05:25;0.52;;;0.52;;
13240;SDS011;6687;47.790;7.322;2023-10-08T06:07:58;1.17;;;0.80;;
13240;SDS011;6687;47.790;7.322;2023-10-08T06:10:36;0.82;;;0.82;;
13240;SDS011;6687;47.790;7.322;2023-10-08T06:13:11;0.63;;;0.63;;
13240;SDS011;6687;47.790;7.322;2023-10-08T06:15:42;0.98;;;0.88;;
13240;SDS011;6687;47.790;7.322;2023-10-08T06:18:13;0.80;;;0.80;;
13240;SDS011;6687;47.790;7.322;2023-10-08T06:20:40;0.70;;;0.70;;
13240;SDS011;6687;47.790;7.322;2023-10-08T06:23:08;0.60;;;0.60;;
13240;SDS011;6687;47.790;7.322;2023-10-08T06:25:37;0.65;;;0.57;;
13240;SDS011;6687;47.790;7.322;2023-10-08T06:28:13;0.55;;;0.55;;
13240;SDS011;6687;47.790;7.322;2023-10-08T06:30:44;0.40;;;0.40;;
13240;SDS011;6687;47.790;7.322;2023-10-08T06:33:10;0.52;;;0.52;;
13240;SDS011;6687;47.790;7.322;2023-10-08T06:35:38;0.68;;;0.43;;
13240;SDS011;6687;47.790;7.322;2023-10-08T06:38:09;0.95;;;0.93;;
13240;SDS011;6687;47.790;7.322;2023-10-08T06:40:36;1.25;;;0.50;;
13240;SDS011;6687;47.790;7.322;2023-10-08T06:43:10;0.80;;;0.80;;
13240;SDS011;6687;47.790;7.322;2023-10-08T06:45:51;1.30;;;0.93;;
13240;SDS011;6687;47.790;7.322;2023-10-08T06:48:23;0.50;;;0.47;;
13240;SDS011;6687;47.790;7.322;2023-10-08T06:50:54;0.82;;;0.50;;
13240;SDS011;6687;47.790;7.322;2023-10-08T06:53:23;0.80;;;0.80;;
13240;SDS011;6687;47.790;7.322;2023-10-08T06:55:50;0.55;;;0.55;;
13240;SDS011;6687;47.790;7.322;2023-10-08T06:58:21;0.40;;;0.40;;
13240;SDS011;6687;47.790;7.322;2023-10-08T07:00:51;0.80;;;0.73;;
13240;SDS011;6687;47.790;7.322;2023-10-08T07:03:20;0.73;;;0.73;;
13240;SDS011;6687;47.790;7.322;2023-10-08T07:05:47;1.17;;;0.77;;
13240;SDS011;6687;47.790;7.322;2023-10-08T07:08:23;0.70;;;0.70;;
13240;SDS011;6687;47.790;7.322;2023-10-08T07:10:52;1.45;;;0.85;;
13240;SDS011;6687;47.790;7.322;2023-10-08T07:13:22;0.70;;;0.60;;
13240;SDS011;6687;47.790;7.322;2023-10-08T07:15:51;0.70;;;0.70;;
13240;SDS011;6687;47.790;7.322;2023-10-08T07:18:18;0.93;;;0.60;;
13240;SDS011;6687;47.790;7.322;2023-10-08T07:20:50;0.98;;;0.98;;
13240;SDS011;6687;47.790;7.322;2023-10-08T07:23:19;1.02;;;0.73;;
13240;SDS011;6687;47.790;7.322;2023-10-08T07:25:52;0.43;;;0.43;;
13240;SDS011;6687;47.790;7.322;2023-10-08T07:28:25;0.70;;;0.68;;
13240;SDS011;6687;47.790;7.322;2023-10-08T07:30:53;0.60;;;0.60;;
13240;SDS011;6687;47.790;7.322;2023-10-08T07:33:20;1.08;;;0.80;;
13240;SDS011;6687;47.790;7.322;2023-10-08T07:35:50;1.00;;;0.75;;
13240;SDS011;6687;47.790;7.322;2023-10-08T07:38:22;1.63;;;1.08;;
13240;SDS011;6687;47.790;7.322;2023-10-08T07:40:54;2.25;;;1.10;;
13240;SDS011;6687;47.790;7.322;2023-10-08T07:43:22;1.42;;;0.90;;
13240;SDS011;6687;47.790;7.322;2023-10-08T07:45:49;0.70;;;0.70;;
13240;SDS011;6687;47.790;7.322;2023-10-08T07:48:20;0.75;;;0.73;;
13240;SDS011;6687;47.790;7.322;2023-10-08T07:50:54;1.10;;;0.63;;
13240;SDS011;6687;47.790;7.322;2023-10-08T07:53:22;2.80;;;1.70;;
13240;SDS011;6687;47.790;7.322;2023-10-08T07:55:49;0.60;;;0.60;;
13240;SDS011;6687;47.790;7.322;2023-10-08T07:58:16;1.08;;;1.08;;
13240;SDS011;6687;47.790;7.322;2023-10-08T08:00:44;0.68;;;0.60;;
13240;SDS011;6687;47.790;7.322;2023-10-08T08:03:21;0.90;;;0.65;;
13240;SDS011;6687;47.790;7.322;2023-10-08T08:05:49;1.60;;;0.60;;
13240;SDS011;6687;47.790;7.322;2023-10-08T08:08:21;0.38;;;0.38;;
13240;SDS011;6687;47.790;7.322;2023-10-08T08:10:49;0.95;;;0.57;;
13240;SDS011;6687;47.790;7.322;2023-10-08T08:13:23;1.42;;;1.00;;
13240;SDS011;6687;47.790;7.322;2023-10-08T08:15:53;1.38;;;0.70;;
13240;SDS011;6687;47.790;7.322;2023-10-08T08:18:25;1.85;;;1.20;;
13240;SDS011;6687;47.790;7.322;2023-10-08T08:20:58;1.45;;;0.40;;
13240;SDS011;6687;47.790;7.322;2023-10-08T08:23:27;0.63;;;0.63;;
13240;SDS011;6687;47.790;7.322;2023-10-08T08:25:55;0.93;;;0.70;;
13240;SDS011;6687;47.790;7.322;2023-10-08T08:28:32;0.60;;;0.60;;
13240;SDS011;6687;47.790;7.322;2023-10-08T08:31:01;0.55;;;0.50;;
13240;SDS011;6687;47.790;7.322;2023-10-08T08:33:31;0.63;;;0.63;;
13240;SDS011;6687;47.790;7.322;2023-10-08T08:36:17;1.15;;;1.05;;
13240;SDS011;6687;47.790;7.322;2023-10-08T08:38:44;0.90;;;0.52;;
13240;SDS011;6687;47.790;7.322;2023-10-08T08:41:11;0.75;;;0.75;;
13240;SDS011;6687;47.790;7.322;2023-10-08T08:43:39;0.50;;;0.50;;
13240;SDS011;6687;47.790;7.322;2023-10-08T08:46:10;1.20;;;0.88;;
13240;SDS011;6687;47.790;7.322;2023-10-08T08:48:39;1.20;;;0.73;;
13240;SDS011;6687;47.790;7.322;2023-10-08T08:51:07;0.40;;;0.40;;
13240;SDS011;6687;47.790;7.322;2023-10-08T08:53:34;0.63;;;0.63;;
13240;SDS011;6687;47.790;7.322;2023-10-08T08:56:02;0.82;;;0.82;;
13240;SDS011;6687;47.790;7.322;2023-10-08T08:58:32;0.60;;;0.60;;
13240;SDS011;6687;47.790;7.322;2023-10-08T09:00:59;0.95;;;0.88;;
13240;SDS011;6687;47.790;7.322;2023-10-08T09:03:28;1.08;;;0.70;;
13240;SDS011;6687;47.790;7.322;2023-10-08T09:05:58;0.65;;;0.65;;
13240;SDS011;6687;47.790;7.322;2023-10-08T09:08:27;1.40;;;1.02;;
13240;SDS011;6687;47.790;7.322;2023-10-08T09:10:57;1.50;;;0.98;;
13240;SDS011;6687;47.790;7.322;2023-10-08T09:13:26;0.95;;;0.80;;
13240;SDS011;6687;47.790;7.322;2023-10-08T09:15:56;1.52;;;0.93;;
13240;SDS011;6687;47.790;7.322;2023-10-08T09:18:28;0.82;;;0.82;;
13240;SDS011;6687;47.790;7.322;2023-10-08T09:21:02;0.95;;;0.88;;
13240;SDS011;6687;47.790;7.322;2023-10-08T09:23:36;1.70;;;0.88;;
13240;SDS011;6687;47.790;7.322;2023-10-08T09:26:08;0.95;;;0.88;;
13240;SDS011;6687;47.790;7.322;2023-10-08T09:28:36;1.80;;;0.65;;
13240;SDS011;6687;47.790;7.322;2023-10-08T09:31:03;1.70;;;0.70;;
13240;SDS011;6687;47.790;7.322;2023-10-08T09:33:31;0.70;;;0.60;;
13240;SDS011;6687;47.790;7.322;2023-10-08T09:35:58;1.05;;;0.50;;
13240;SDS011;6687;47.790;7.322;2023-10-08T09:38:29;0.43;;;0.43;;
13240;SDS011;6687;47.790;7.322;2023-10-08T09:40:56;1.10;;;0.70;;
13240;SDS011;6687;47.790;7.322;2023-10-08T09:43:26;1.02;;;0.68;;
13240;SDS011;6687;47.790;7.322;2023-10-08T09:45:55;1.95;;;0.60;;
13240;SDS011;6687;47.790;7.322;2023-10-08T09:48:32;1.63;;;0.80;;
13240;SDS011;6687;47.790;7.322;2023-10-08T09:51:03;1.08;;;0.95;;
13240;SDS011;6687;47.790;7.322;2023-10-08T09:53:35;1.25;;;0.57;;
13240;SDS011;6687;47.790;7.322;2023-10-08T09:56:10;0.98;;;0.95;;
13240;SDS011;6687;47.790;7.322;2023-10-08T09:58:40;0.43;;;0.43;;
13240;SDS011;6687;47.790;7.322;2023-10-08T10:01:09;0.73;;;0.68;;
13240;SDS011;6687;47.790;7.322;2023-10-08T10:03:37;1.08;;;0.63;;
13240;SDS011;6687;47.790;7.322;2023-10-08T10:06:04;0.88;;;0.50;;
13240;SDS011;6687;47.790;7.322;2023-10-08T10:08:41;0.88;;;0.73;;
13240;SDS011;6687;47.790;7.322;2023-10-08T10:11:08;0.85;;;0.70;;
13240;SDS011;6687;47.790;7.322;2023-10-08T10:13:38;0.75;;;0.50;;
13240;SDS011;6687;47.790;7.322;2023-10-08T10:16:06;1.00;;;0.57;;
13240;SDS011;6687;47.790;7.322;2023-10-08T10:18:33;1.95;;;0.70;;
13240;SDS011;6687;47.790;7.322;2023-10-08T10:21:23;0.98;;;0.70;;
13240;SDS011;6687;47.790;7.322;2023-10-08T10:23:57;0.57;;;0.57;;
13240;SDS011;6687;47.790;7.322;2023-10-08T10:26:25;3.25;;;0.98;;
13240;SDS011;6687;47.790;7.322;2023-10-08T10:31:45;0.55;;;0.55;;
13240;SDS011;6687;47.790;7.322;2023-10-08T10:34:15;0.98;;;0.77;;
13240;SDS011;6687;47.790;7.322;2023-10-08T10:36:44;1.08;;;0.52;;
13240;SDS011;6687;47.790;7.322;2023-10-08T10:39:15;0.90;;;0.47;;
13240;SDS011;6687;47.790;7.322;2023-10-08T10:41:51;0.93;;;0.70;;
13240;SDS011;6687;47.790;7.322;2023-10-08T10:44:22;0.50;;;0.50;;
13240;SDS011;6687;47.790;7.322;2023-10-08T10:46:50;1.38;;;0.98;;
13240;SDS011;6687;47.790;7.322;2023-10-08T10:49:16;0.65;;;0.50;;
13240;SDS011;6687;47.790;7.322;2023-10-08T10:51:47;0.50;;;0.45;;
13240;SDS011;6687;47.790;7.322;2023-10-08T10:54:19;0.95;;;0.70;;
13240;SDS011;6687;47.790;7.322;2023-10-08T10:56:46;1.38;;;1.13;;
13240;SDS011;6687;47.790;7.322;2023-10-08T10:59:24;1.83;;;0.98;;
13240;SDS011;6687;47.790;7.322;2023-10-08T11:01:53;1.00;;;0.90;;
13240;SDS011;6687;47.790;7.322;2023-10-08T11:04:32;0.90;;;0.57;;
13240;SDS011;6687;47.790;7.322;2023-10-08T11:07:10;1.63;;;0.80;;
13240;SDS011;6687;47.790;7.322;2023-10-08T11:09:39;1.45;;;0.88;;
13240;SDS011;6687;47.790;7.322;2023-10-08T11:12:09;0.93;;;0.70;;
13240;SDS011;6687;47.790;7.322;2023-10-08T11:14:37;1.63;;;0.98;;
13240;SDS011;6687;47.790;7.322;2023-10-08T11:17:10;1.13;;;0.90;;
13240;SDS011;6687;47.790;7.322;2023-10-08T11:19:38;1.30;;;0.82;;
13240;SDS011;6687;47.790;7.322;2023-10-08T11:22:07;1.33;;;0.95;;
13240;SDS011;6687;47.790;7.322;2023-10-08T11:24:42;2.40;;;1.10;;
13240;SDS011;6687;47.790;7.322;2023-10-08T11:27:12;2.25;;;1.35;;
13240;SDS011;6687;47.790;7.322;2023-10-08T11:29:43;2.10;;;1.90;;
13240;SDS011;6687;47.790;7.322;2023-10-08T11:32:11;2.30;;;1.35;;
13240;SDS011;6687;47.790;7.322;2023-10-08T11:34:40;0.88;;;0.88;;
13240;SDS011;6687;47.790;7.322;2023-10-08T11:37:07;0.93;;;0.93;;
13240;SDS011;6687;47.790;7.322;2023-10-08T11:39:47;0.70;;;0.70;;
13240;SDS011;6687;47.790;7.322;2023-10-08T11:42:15;1.35;;;0.88;;
13240;SDS011;6687;47.790;7.322;2023-10-08T11:44:59;1.42;;;0.70;;
13240;SDS011;6687;47.790;7.322;2023-10-08T11:47:42;1.70;;;0.80;;
13240;SDS011;6687;47.790;7.322;2023-10-08T11:50:10;1.20;;;0.90;;
13240;SDS011;6687;47.790;7.322;2023-10-08T11:52:42;2.45;;;0.90;;
13240;SDS011;6687;47.790;7.322;2023-10-08T11:55:10;3.15;;;0.93;;
13240;SDS011;6687;47.790;7.322;2023-10-08T11:57:43;1.33;;;0.85;;
13240;SDS011;6687;47.790;7.322;2023-10-08T12:00:14;1.48;;;0.70;;
13240;SDS011;6687;47.790;7.322;2023-10-08T12:02:45;1.65;;;0.60;;
13240;SDS011;6687;47.790;7.322;2023-10-08T12:05:12;1.73;;;0.73;;
13240;SDS011;6687;47.790;7.322;2023-10-08T12:07:44;1.38;;;1.27;;
13240;SDS011;6687;47.790;7.322;2023-10-08T12:10:13;1.65;;;1.23;;
13240;SDS011;6687;47.790;7.322;2023-10-08T12:12:42;3.15;;;1.00;;
13240;SDS011;6687;47.790;7.322;2023-10-08T12:15:11;1.63;;;0.70;;
13240;SDS011;6687;47.790;7.322;2023-10-08T12:17:44;1.85;;;0.98;;
13240;SDS011;6687;47.790;7.322;2023-10-08T12:20:32;2.67;;;1.10;;
13240;SDS011;6687;47.790;7.322;2023-10-08T12:23:00;3.38;;;1.10;;
13240;SDS011;6687;47.790;7.322;2023-10-08T12:25:28;3.20;;;1.58;;
13240;SDS011;6687;47.790;7.322;2023-10-08T12:27:57;1.73;;;1.25;;
13240;SDS011;6687;47.790;7.322;2023-10-08T12:30:28;1.55;;;0.88;;
13240;SDS011;6687;47.790;7.322;2023-10-08T12:32:57;1.40;;;1.10;;
13240;SDS011;6687;47.790;7.322;2023-10-08T12:35:24;1.30;;;1.00;;
13240;SDS011;6687;47.790;7.322;2023-10-08T12:37:54;1.38;;;0.85;;
13240;SDS011;6687;47.790;7.322;2023-10-08T12:40:22;1.33;;;0.70;;
13240;SDS011;6687;47.790;7.322;2023-10-08T12:42:50;1.40;;;0.60;;
13240;SDS011;6687;47.790;7.322;2023-10-08T12:45:17;0.82;;;0.82;;
13240;SDS011;6687;47.790;7.322;2023-10-08T12:47:47;0.90;;;0.90;;
13240;SDS011;6687;47.790;7.322;2023-10-08T12:50:15;4.28;;;0.93;;
13240;SDS011;6687;47.790;7.322;2023-10-08T12:52:46;2.47;;;0.60;;
13240;SDS011;6687;47.790;7.322;2023-10-08T12:55:18;2.03;;;0.73;;
13240;SDS011;6687;47.790;7.322;2023-10-08T12:57:50;1.27;;;0.70;;
13240;SDS011;6687;47.790;7.322;2023-10-08T13:00:21;1.35;;;1.15;;
13240;SDS011;6687;47.790;7.322;2023-10-08T13:02:49;2.13;;;0.82;;
13240;SDS011;6687;47.790;7.322;2023-10-08T13:05:19;2.35;;;0.80;;
13240;SDS011;6687;47.790;7.322;2023-10-08T13:07:53;6.68;;;1.02;;
13240;SDS011;6687;47.790;7.322;2023-10-08T13:10:21;2.13;;;0.77;;
13240;SDS011;6687;47.790;7.322;2023-10-08T13:12:50;1.33;;;0.82;;
13240;SDS011;6687;47.790;7.322;2023-10-08T13:15:17;0.80;;;0.50;;
13240;SDS011;6687;47.790;7.322;2023-10-08T13:17:44;1.77;;;0.77;;
13240;SDS011;6687;47.790;7.322;2023-10-08T13:20:11;1.52;;;0.75;;
13240;SDS011;6687;47.790;7.322;2023-10-08T13:22:38;1.35;;;0.60;;
13240;SDS011;6687;47.790;7.322;2023-10-08T13:25:05;2.83;;;0.93;;
13240;SDS011;6687;47.790;7.322;2023-10-08T13:27:33;1.25;;;0.70;;
13240;SDS011;6687;47.790;7.322;2023-10-08T13:30:06;2.20;;;1.48;;
13240;SDS011;6687;47.790;7.322;2023-10-08T13:32:34;2.10;;;0.88;;
13240;SDS011;6687;47.790;7.322;2023-10-08T13:35:02;1.60;;;1.15;;
13240;SDS011;6687;47.790;7.322;2023-10-08T13:37:31;3.35;;;0.63;;
13240;SDS011;6687;47.790;7.322;2023-10-08T13:39:58;2.15;;;1.13;;
13240;SDS011;6687;47.790;7.322;2023-10-08T13:42:25;2.45;;;0.73;;
13240;SDS011;6687;47.790;7.322;2023-10-08T13:44:52;3.70;;;0.85;;
13240;SDS011;6687;47.790;7.322;2023-10-08T13:47:20;0.70;;;0.45;;
13240;SDS011;6687;47.790;7.322;2023-10-08T13:49:50;3.25;;;1.13;;
13240;SDS011;6687;47.790;7.322;2023-10-08T13:52:17;1.13;;;0.95;;
13240;SDS011;6687;47.790;7.322;2023-10-08T13:54:45;3.55;;;1.27;;
13240;SDS011;6687;47.790;7.322;2023-10-08T13:57:17;0.40;;;0.40;;
13240;SDS011;6687;47.790;7.322;2023-10-08T13:59:44;2.05;;;0.82;;
13240;SDS011;6687;47.790;7.322;2023-10-08T14:02:11;3.28;;;0.68;;
13240;SDS011;6687;47.790;7.322;2023-10-08T14:04:42;0.75;;;0.60;;
13240;SDS011;6687;47.790;7.322;2023-10-08T14:07:09;1.15;;;0.60;;
13240;SDS011;6687;47.790;7.322;2023-10-08T14:09:41;3.35;;;0.93;;
13240;SDS011;6687;47.790;7.322;2023-10-08T14:12:10;1.38;;;1.08;;
13240;SDS011;6687;47.790;7.322;2023-10-08T14:14:38;3.30;;;1.10;;
13240;SDS011;6687;47.790;7.322;2023-10-08T14:17:09;1.17;;;0.77;;
13240;SDS011;6687;47.790;7.322;2023-10-08T14:19:40;0.73;;;0.55;;
13240;SDS011;6687;47.790;7.322;2023-10-08T14:22:24;2.47;;;1.38;;
13240;SDS011;6687;47.790;7.322;2023-10-08T14:24:52;0.82;;;0.80;;
13240;SDS011;6687;47.790;7.322;2023-10-08T14:27:24;3.30;;;0.90;;
13240;SDS011;6687;47.790;7.322;2023-10-08T14:29:56;3.05;;;1.15;;
13240;SDS011;6687;47.790;7.322;2023-10-08T14:32:26;3.17;;;0.88;;
13240;SDS011;6687;47.790;7.322;2023-10-08T14:34:54;3.40;;;0.68;;
13240;SDS011;6687;47.790;7.322;2023-10-08T14:37:38;1.90;;;0.52;;
13240;SDS011;6687;47.790;7.322;2023-10-08T14:40:37;2.03;;;0.98;;
13240;SDS011;6687;47.790;7.322;2023-10-08T14:43:21;2.63;;;1.00;;
13240;SDS011;6687;47.790;7.322;2023-10-08T14:45:49;1.80;;;0.70;;
13240;SDS011;6687;47.790;7.322;2023-10-08T14:48:17;1.85;;;0.60;;
13240;SDS011;6687;47.790;7.322;2023-10-08T14:50:46;1.17;;;0.80;;
13240;SDS011;6687;47.790;7.322;2023-10-08T14:53:14;1.38;;;0.80;;
13240;SDS011;6687;47.790;7.322;2023-10-08T14:55:41;1.15;;;0.40;;
13240;SDS011;6687;47.790;7.322;2023-10-08T14:58:08;2.63;;;0.70;;
13240;SDS011;6687;47.790;7.322;2023-10-08T15:00:35;3.05;;;0.80;;
13240;SDS011;6687;47.790;7.322;2023-10-08T15:03:03;4.85;;;1.13;;
13240;SDS011;6687;47.790;7.322;2023-10-08T15:05:30;1.90;;;0.93;;
13240;SDS011;6687;47.790;7.322;2023-10-08T15:07:59;1.02;;;0.73;;
13240;SDS011;6687;47.790;7.322;2023-10-08T15:10:26;2.13;;;0.47;;
13240;SDS011;6687;47.790;7.322;2023-10-08T15:12:55;3.53;;;0.60;;
13240;SDS011;6687;47.790;7.322;2023-10-08T15:15:22;2.17;;;1.05;;
13240;SDS011;6687;47.790;7.322;2023-10-08T15:17:50;1.73;;;0.80;;
13240;SDS011;6687;47.790;7.322;2023-10-08T15:20:17;2.10;;;0.60;;
13240;SDS011;6687;47.790;7.322;2023-10-08T15:22:45;1.52;;;1.08;;
13240;SDS011;6687;47.790;7.322;2023-10-08T15:25:16;3.30;;;0.60;;
13240;SDS011;6687;47.790;7.322;2023-10-08T15:27:44;4.80;;;0.82;;
13240;SDS011;6687;47.790;7.322;2023-10-08T15:30:14;1.05;;;0.40;;
13240;SDS011;6687;47.790;7.322;2023-10-08T15:32:43;0.63;;;0.40;;
13240;SDS011;6687;47.790;7.322;2023-10-08T15:35:11;2.53;;;1.38;;
13240;SDS011;6687;47.790;7.322;2023-10-08T15:37:39;1.27;;;0.40;;
13240;SDS011;6687;47.790;7.322;2023-10-08T15:40:07;1.95;;;0.60;;
13240;SDS011;6687;47.790;7.322;2023-10-08T15:42:44;0.50;;;0.50;;
13240;SDS011;6687;47.790;7.322;2023-10-08T15:45:13;1.95;;;0.73;;
13240;SDS011;6687;47.790;7.322;2023-10-08T15:47:40;0.85;;;0.43;;
13240;SDS011;6687;47.790;7.322;2023-10-08T15:50:07;0.80;;;0.50;;
13240;SDS011;6687;47.790;7.322;2023-10-08T15:52:35;0.88;;;0.57;;
13240;SDS011;6687;47.790;7.322;2023-10-08T15:55:02;2.20;;;0.60;;
13240;SDS011;6687;47.790;7.322;2023-10-08T15:57:30;0.73;;;0.25;;
13240;SDS011;6687;47.790;7.322;2023-10-08T15:59:58;0.32;;;0.32;;
13240;SDS011;6687;47.790;7.322;2023-10-08T16:02:24;0.50;;;0.50;;
13240;SDS011;6687;47.790;7.322;2023-10-08T16:04:51;0.88;;;0.38;;
13240;SDS011;6687;47.790;7.322;2023-10-08T16:07:19;2.63;;;0.52;;
13240;SDS011;6687;47.790;7.322;2023-10-08T16:09:46;1.20;;;0.50;;
13240;SDS011;6687;47.790;7.322;2023-10-08T16:12:12;0.47;;;0.47;;
13240;SDS011;6687;47.790;7.322;2023-10-08T16:14:39;0.52;;;0.25;;
13240;SDS011;6687;47.790;7.322;2023-10-08T16:17:07;2.30;;;0.63;;
13240;SDS011;6687;47.790;7.322;2023-10-08T16:19:38;0.65;;;0.47;;
13240;SDS011;6687;47.790;7.322;2023-10-08T16:22:05;2.58;;;0.40;;
13240;SDS011;6687;47.790;7.322;2023-10-08T16:24:34;0.57;;;0.32;;
13240;SDS011;6687;47.790;7.322;2023-10-08T16:27:02;1.20;;;0.70;;
13240;SDS011;6687;47.790;7.322;2023-10-08T16:29:29;2.10;;;0.50;;
13240;SDS011;6687;47.790;7.322;2023-10-08T16:31:56;1.00;;;0.82;;
13240;SDS011;6687;47.790;7.322;2023-10-08T16:34:25;0.88;;;0.85;;
13240;SDS011;6687;47.790;7.322;2023-10-08T16:36:52;1.50;;;0.52;;
13240;SDS011;6687;47.790;7.322;2023-10-08T16:39:19;0.80;;;0.47;;
13240;SDS011;6687;47.790;7.322;2023-10-08T16:41:49;2.80;;;0.85;;
13240;SDS011;6687;47.790;7.322;2023-10-08T16:44:17;1.17;;;0.82;;
13240;SDS011;6687;47.790;7.322;2023-10-08T16:46:44;1.23;;;0.85;;
13240;SDS011;6687;47.790;7.322;2023-10-08T16:49:12;1.48;;;0.80;;
13240;SDS011;6687;47.790;7.322;2023-10-08T16:51:40;0.75;;;0.75;;
13240;SDS011;6687;47.790;7.322;2023-10-08T16:54:06;1.05;;;0.77;;
13240;SDS011;6687;47.790;7.322;2023-10-08T16:56:40;1.23;;;0.82;;
13240;SDS011;6687;47.790;7.322;2023-10-08T16:59:07;1.20;;;0.88;;
13240;SDS011;6687;47.790;7.322;2023-10-08T17:01:36;0.90;;;0.90;;
13240;SDS011;6687;47.790;7.322;2023-10-08T17:04:04;1.00;;;0.90;;
13240;SDS011;6687;47.790;7.322;2023-10-08T17:06:32;3.05;;;1.05;;
13240;SDS011;6687;47.790;7.322;2023-10-08T17:09:00;1.50;;;1.13;;
13240;SDS011;6687;47.790;7.322;2023-10-08T17:11:35;1.55;;;0.95;;
13240;SDS011;6687;47.790;7.322;2023-10-08T17:14:02;1.10;;;0.98;;
13240;SDS011;6687;47.790;7.322;2023-10-08T17:16:29;2.42;;;1.65;;
13240;SDS011;6687;47.790;7.322;2023-10-08T17:18:56;2.00;;;1.33;;
13240;SDS011;6687;47.790;7.322;2023-10-08T17:21:23;2.92;;;1.67;;
13240;SDS011;6687;47.790;7.322;2023-10-08T17:23:53;4.05;;;1.10;;
13240;SDS011;6687;47.790;7.322;2023-10-08T17:26:21;2.35;;;1.42;;
13240;SDS011;6687;47.790;7.322;2023-10-08T17:28:48;3.40;;;1.50;;
13240;SDS011;6687;47.790;7.322;2023-10-08T17:31:15;3.13;;;1.63;;
13240;SDS011;6687;47.790;7.322;2023-10-08T17:33:42;2.65;;;1.45;;
13240;SDS011;6687;47.790;7.322;2023-10-08T17:36:09;2.08;;;1.20;;
13240;SDS011;6687;47.790;7.322;2023-10-08T17:38:36;1.77;;;1.52;;
13240;SDS011;6687;47.790;7.322;2023-10-08T17:41:05;2.55;;;1.45;;
13240;SDS011;6687;47.790;7.322;2023-10-08T17:43:35;1.75;;;1.50;;
13240;SDS011;6687;47.790;7.322;2023-10-08T17:46:03;3.33;;;1.70;;
13240;SDS011;6687;47.790;7.322;2023-10-08T17:48:30;2.90;;;1.48;;
13240;SDS011;6687;47.790;7.322;2023-10-08T17:51:01;2.28;;;1.60;;
13240;SDS011;6687;47.790;7.322;2023-10-08T17:53:28;2.30;;;1.52;;
13240;SDS011;6687;47.790;7.322;2023-10-08T17:55:55;1.40;;;1.10;;
13240;SDS011;6687;47.790;7.322;2023-10-08T17:58:22;1.98;;;1.10;;
13240;SDS011;6687;47.790;7.322;2023-10-08T18:00:53;1.45;;;1.33;;
13240;SDS011;6687;47.790;7.322;2023-10-08T18:03:20;2.95;;;1.27;;
13240;SDS011;6687;47.790;7.322;2023-10-08T18:05:47;3.20;;;1.30;;
13240;SDS011;6687;47.790;7.322;2023-10-08T18:08:18;3.17;;;1.40;;
13240;SDS011;6687;47.790;7.322;2023-10-08T18:10:47;2.97;;;1.20;;
13240;SDS011;6687;47.790;7.322;2023-10-08T18:13:14;2.25;;;1.27;;
13240;SDS011;6687;47.790;7.322;2023-10-08T18:15:41;1.73;;;0.88;;
13240;SDS011;6687;47.790;7.322;2023-10-08T18:18:10;1.73;;;1.20;;
13240;SDS011;6687;47.790;7.322;2023-10-08T18:20:38;1.33;;;1.23;;
13240;SDS011;6687;47.790;7.322;2023-10-08T18:23:09;2.97;;;1.67;;
13240;SDS011;6687;47.790;7.322;2023-10-08T18:25:37;2.97;;;1.20;;
13240;SDS011;6687;47.790;7.322;2023-10-08T18:28:05;1.30;;;1.20;;
13240;SDS011;6687;47.790;7.322;2023-10-08T18:30:33;2.20;;;1.40;;
13240;SDS011;6687;47.790;7.322;2023-10-08T18:33:00;1.67;;;1.30;;
13240;SDS011;6687;47.790;7.322;2023-10-08T18:35:30;1.95;;;1.15;;
13240;SDS011;6687;47.790;7.322;2023-10-08T18:37:57;1.75;;;1.00;;
13240;SDS011;6687;47.790;7.322;2023-10-08T18:40:25;2.25;;;1.40;;
13240;SDS011;6687;47.790;7.322;2023-10-08T18:42:53;1.48;;;1.05;;
13240;SDS011;6687;47.790;7.322;2023-10-08T18:45:21;2.35;;;1.42;;
13240;SDS011;6687;47.790;7.322;2023-10-08T18:47:48;3.05;;;1.42;;
13240;SDS011;6687;47.790;7.322;2023-10-08T18:50:15;2.85;;;1.45;;
13240;SDS011;6687;47.790;7.322;2023-10-08T18:52:44;3.03;;;1.42;;
13240;SDS011;6687;47.790;7.322;2023-10-08T18:55:12;1.50;;;1.30;;
13240;SDS011;6687;47.790;7.322;2023-10-08T18:57:39;3.28;;;1.40;;
13240;SDS011;6687;47.790;7.322;2023-10-08T19:00:07;2.60;;;1.60;;
13240;SDS011;6687;47.790;7.322;2023-10-08T19:02:35;2.33;;;1.13;;
13240;SDS011;6687;47.790;7.322;2023-10-08T19:05:03;3.53;;;1.52;;
13240;SDS011;6687;47.790;7.322;2023-10-08T19:07:31;1.60;;;1.50;;
13240;SDS011;6687;47.790;7.322;2023-10-08T19:10:00;2.92;;;1.40;;
13240;SDS011;6687;47.790;7.322;2023-10-08T19:12:29;2.33;;;1.75;;
13240;SDS011;6687;47.790;7.322;2023-10-08T19:14:56;2.17;;;1.70;;
13240;SDS011;6687;47.790;7.322;2023-10-08T19:17:23;2.60;;;1.45;;
13240;SDS011;6687;47.790;7.322;2023-10-08T19:19:50;1.98;;;1.45;;
13240;SDS011;6687;47.790;7.322;2023-10-08T19:22:17;2.60;;;1.48;;
13240;SDS011;6687;47.790;7.322;2023-10-08T19:24:45;1.48;;;1.25;;
13240;SDS011;6687;47.790;7.322;2023-10-08T19:27:13;4.35;;;1.50;;
13240;SDS011;6687;47.790;7.322;2023-10-08T19:29:44;2.13;;;1.50;;
13240;SDS011;6687;47.790;7.322;2023-10-08T19:32:11;1.38;;;1.27;;
13240;SDS011;6687;47.790;7.322;2023-10-08T19:34:38;1.90;;;1.33;;
13240;SDS011;6687;47.790;7.322;2023-10-08T19:37:04;2.58;;;1.42;;
13240;SDS011;6687;47.790;7.322;2023-10-08T19:39:31;2.58;;;1.30;;
13240;SDS011;6687;47.790;7.322;2023-10-08T19:41:58;2.13;;;1.45;;
13240;SDS011;6687;47.790;7.322;2023-10-08T19:44:26;3.97;;;1.77;;
13240;SDS011;6687;47.790;7.322;2023-10-08T19:46:53;4.30;;;1.33;;
13240;SDS011;6687;47.790;7.322;2023-10-08T19:49:20;5.05;;;1.83;;
13240;SDS011;6687;47.790;7.322;2023-10-08T19:51:47;2.97;;;1.65;;
13240;SDS011;6687;47.790;7.322;2023-10-08T19:54:15;2.55;;;1.35;;
13240;SDS011;6687;47.790;7.322;2023-10-08T19:56:41;1.45;;;0.90;;
13240;SDS011;6687;47.790;7.322;2023-10-08T19:59:08;3.50;;;1.50;;
13240;SDS011;6687;47.790;7.322;2023-10-08T20:01:38;2.13;;;1.25;;
13240;SDS011;6687;47.790;7.322;2023-10-08T20:04:05;3.08;;;1.52;;
13240;SDS011;6687;47.790;7.322;2023-10-08T20:06:32;3.72;;;1.20;;
13240;SDS011;6687;47.790;7.322;2023-10-08T20:09:02;1.60;;;1.20;;
13240;SDS011;6687;47.790;7.322;2023-10-08T20:11:31;0.95;;;0.82;;
13240;SDS011;6687;47.790;7.322;2023-10-08T20:13:58;1.60;;;1.02;;
13240;SDS011;6687;47.790;7.322;2023-10-08T20:16:25;1.50;;;1.40;;
13240;SDS011;6687;47.790;7.322;2023-10-08T20:18:55;0.70;;;0.70;;
13240;SDS011;6687;47.790;7.322;2023-10-08T20:21:22;1.65;;;1.10;;
13240;SDS011;6687;47.790;7.322;2023-10-08T20:23:51;2.58;;;0.95;;
13240;SDS011;6687;47.790;7.322;2023-10-08T20:26:18;1.40;;;1.13;;
13240;SDS011;6687;47.790;7.322;2023-10-08T20:28:46;3.58;;;1.25;;
13240;SDS011;6687;47.790;7.322;2023-10-08T20:31:14;2.25;;;0.82;;
13240;SDS011;6687;47.790;7.322;2023-10-08T20:33:41;1.35;;;1.00;;
13240;SDS011;6687;47.790;7.322;2023-10-08T20:36:10;4.18;;;1.10;;
13240;SDS011;6687;47.790;7.322;2023-10-08T20:38:38;1.70;;;1.23;;
13240;SDS011;6687;47.790;7.322;2023-10-08T20:41:05;1.83;;;1.10;;
13240;SDS011;6687;47.790;7.322;2023-10-08T20:43:41;2.28;;;1.25;;